createdAt,value
2023-04-19T00:01:34.626Z,97463.78
2023-04-19T00:04:01.483Z,97458.84
2023-04-19T00:06:30.542Z,97456.34
2023-04-19T00:08:57.589Z,97461.84
2023-04-19T00:11:25.041Z,97448.22
2023-04-19T00:13:51.616Z,97445.50
2023-04-19T00:16:18.056Z,97442.59
2023-04-19T00:18:44.467Z,97446.72
2023-04-19T00:21:11.718Z,97446.59
2023-04-19T00:23:38.136Z,97443.84
2023-04-19T00:26:04.712Z,97442.06
2023-04-19T00:28:31.228Z,97438.06
2023-04-19T00:30:58.729Z,97434.50
2023-04-19T00:33:25.178Z,97437.69
2023-04-19T00:35:52.637Z,97431.47
2023-04-19T00:38:19.046Z,97429.94
2023-04-19T00:40:46.647Z,97422.22
2023-04-19T00:43:16.743Z,97419.47
2023-04-19T00:45:43.169Z,97412.59
2023-04-19T00:48:10.823Z,97415.34
2023-04-19T00:50:37.317Z,97413.69
2023-04-19T00:53:03.783Z,97404.34
2023-04-19T00:55:30.306Z,97405.72
2023-04-19T00:57:59.890Z,97404.03
2023-04-19T01:00:26.366Z,97396.19
2023-04-19T01:02:53.756Z,97397.69
2023-04-19T01:05:20.366Z,97398.50
2023-04-19T01:07:46.758Z,97396.16
2023-04-19T01:10:13.168Z,97390.34
2023-04-19T01:12:39.629Z,97389.22
2023-04-19T01:15:06.390Z,97387.47
2023-04-19T01:17:34.992Z,97384.41
2023-04-19T01:20:02.207Z,97380.41
2023-04-19T01:22:30.089Z,97379.34
2023-04-19T01:24:57.342Z,97380.75
2023-04-19T01:27:24.070Z,97374.38
2023-04-19T01:29:56.591Z,97380.53
2023-04-19T01:32:23.036Z,97376.66
2023-04-19T01:34:57.186Z,97376.53
2023-04-19T01:37:23.579Z,97384.63
2023-04-19T01:39:49.993Z,97381.88
2023-04-19T01:42:16.416Z,97379.81
2023-04-19T01:44:42.843Z,97379.66
2023-04-19T01:47:10.520Z,97371.69
2023-04-19T01:49:37.112Z,97376.78
2023-04-19T01:52:03.612Z,97367.22
2023-04-19T01:54:30.050Z,97360.88
2023-04-19T01:56:57.117Z,97363.78
2023-04-19T01:59:23.534Z,97357.34
2023-04-19T02:01:50.315Z,97365.06
2023-04-19T02:04:18.758Z,97355.00
2023-04-19T02:06:45.329Z,97359.72
2023-04-19T02:09:11.806Z,97354.34
2023-04-19T02:11:46.537Z,97360.44
2023-04-19T02:14:13.099Z,97348.25
2023-04-19T02:16:39.660Z,97351.97
2023-04-19T02:19:06.066Z,97345.22
2023-04-19T02:21:32.498Z,97348.97
2023-04-19T02:23:58.863Z,97343.91
2023-04-19T02:26:25.331Z,97341.53
2023-04-19T02:28:52.652Z,97339.59
2023-04-19T02:31:19.275Z,97334.94
2023-04-19T02:33:46.894Z,97336.19
2023-04-19T02:36:13.385Z,97333.44
2023-04-19T02:38:41.840Z,97342.88
2023-04-19T02:41:08.335Z,97335.63
2023-04-19T02:43:34.740Z,97326.59
2023-04-19T02:46:01.512Z,97329.69
2023-04-19T02:48:29.142Z,97325.81
2023-04-19T02:50:55.557Z,97317.09
2023-04-19T02:53:21.950Z,97314.34
2023-04-19T02:55:48.370Z,97317.84
2023-04-19T02:58:14.888Z,97315.50
2023-04-19T03:00:43.287Z,97318.75
2023-04-19T03:03:11.307Z,97317.00
2023-04-19T03:05:37.734Z,97304.63
2023-04-19T03:08:04.169Z,97307.59
2023-04-19T03:10:35.543Z,97311.59
2023-04-19T03:13:01.954Z,97301.41
2023-04-19T03:15:28.894Z,97305.22
2023-04-19T03:17:55.421Z,97299.84
2023-04-19T03:20:22.817Z,97295.88
2023-04-19T03:22:55.310Z,97289.66
2023-04-19T03:25:21.850Z,97291.16
2023-04-19T03:27:48.437Z,97277.34
2023-04-19T03:30:15.974Z,97277.91
2023-04-19T03:32:42.443Z,97280.53
2023-04-19T03:35:11.115Z,97278.19
2023-04-19T03:37:37.560Z,97275.56
2023-04-19T03:40:09.113Z,97274.94
2023-04-19T03:42:35.766Z,97266.59
2023-04-19T03:45:02.271Z,97258.88
2023-04-19T03:47:28.683Z,97257.91
2023-04-19T03:49:56.248Z,97259.50
2023-04-19T03:52:22.645Z,97258.25
2023-04-19T03:54:49.015Z,97257.88
2023-04-19T03:57:17.760Z,97258.09
2023-04-19T03:59:44.194Z,97260.94
2023-04-19T04:02:10.639Z,97254.50
2023-04-19T04:04:37.282Z,97256.97
2023-04-19T04:07:03.782Z,97263.00
2023-04-19T04:09:30.255Z,97256.47
2023-04-19T04:11:57.743Z,97251.50
2023-04-19T04:14:24.231Z,97251.03
2023-04-19T04:16:50.750Z,97252.53
2023-04-19T04:19:18.013Z,97252.72
2023-04-19T04:21:44.383Z,97252.41
2023-04-19T04:24:10.826Z,97254.66
2023-04-19T04:26:39.533Z,97252.50
2023-04-19T04:29:06.247Z,97253.97
2023-04-19T04:31:32.676Z,97250.91
2023-04-19T04:33:59.129Z,97261.56
2023-04-19T04:36:26.257Z,97253.09
2023-04-19T04:38:52.672Z,97251.00
2023-04-19T04:41:22.497Z,97251.09
2023-04-19T04:44:04.599Z,97253.72
2023-04-19T04:46:35.915Z,97250.53
2023-04-19T04:49:02.370Z,97246.25
2023-04-19T04:51:28.936Z,97247.28
2023-04-19T04:53:55.498Z,97247.97
2023-04-19T04:56:21.999Z,97253.06
2023-04-19T04:58:48.431Z,97246.72
2023-04-19T05:01:15.310Z,97247.16
2023-04-19T05:03:41.814Z,97244.25
2023-04-19T05:06:08.688Z,97247.53
2023-04-19T05:08:35.039Z,97249.16
2023-04-19T05:11:01.535Z,97243.41
2023-04-19T05:13:27.949Z,97234.00
2023-04-19T05:15:54.386Z,97232.72
2023-04-19T05:18:21.854Z,97237.50
2023-04-19T05:20:48.393Z,97237.41
2023-04-19T05:23:14.843Z,97236.16
2023-04-19T05:25:41.362Z,97225.66
2023-04-19T05:28:07.813Z,97224.88
2023-04-19T05:30:35.321Z,97221.84
2023-04-19T05:33:01.878Z,97223.19
2023-04-19T05:35:32.451Z,97222.25
2023-04-19T05:37:58.917Z,97223.81
2023-04-19T05:40:25.313Z,97217.97
2023-04-19T05:42:51.768Z,97217.66
2023-04-19T05:45:20.918Z,97220.44
2023-04-19T05:47:47.649Z,97206.44
2023-04-19T05:50:17.952Z,97210.78
2023-04-19T05:52:44.504Z,97208.47
2023-04-19T05:55:10.921Z,97201.44
2023-04-19T05:57:37.332Z,97212.28
2023-04-19T06:00:05.033Z,97213.25
2023-04-19T06:02:31.526Z,97203.28
2023-04-19T06:05:02.652Z,97207.63
2023-04-19T06:07:34.163Z,97204.03
2023-04-19T06:10:04.408Z,97206.34
2023-04-19T06:12:30.898Z,97198.81
2023-04-19T06:15:01.420Z,97204.31
2023-04-19T06:17:27.840Z,97204.50
2023-04-19T06:20:07.460Z,97200.22
2023-04-19T06:22:33.930Z,97190.56
2023-04-19T06:25:01.081Z,97191.69
2023-04-19T06:27:27.501Z,97199.84
2023-04-19T06:29:53.898Z,97194.94
2023-04-19T06:32:27.405Z,97200.53
2023-04-19T06:34:53.828Z,97194.25
2023-04-19T06:37:20.367Z,97197.88
2023-04-19T06:39:46.773Z,97201.69
2023-04-19T06:42:13.161Z,97199.88
2023-04-19T06:44:39.536Z,97203.47
2023-04-19T06:47:06.018Z,97196.28
2023-04-19T06:49:32.395Z,97198.28
2023-04-19T06:51:59.641Z,97193.41
2023-04-19T06:54:28.080Z,97184.81
2023-04-19T06:56:54.494Z,97194.53
2023-04-19T06:59:21.125Z,97192.59
2023-04-19T07:01:48.287Z,97189.50
2023-04-19T07:04:16.325Z,97183.59
2023-04-19T07:06:43.013Z,97179.00
2023-04-19T07:09:09.476Z,97181.84
2023-04-19T07:11:36.966Z,97176.28
2023-04-19T07:14:03.392Z,97186.66
2023-04-19T07:16:30.086Z,97176.50
2023-04-19T07:18:57.222Z,97169.63
2023-04-19T07:21:26.620Z,97171.94
2023-04-19T07:23:53.041Z,97168.66
2023-04-19T07:26:20.479Z,97169.59
2023-04-19T07:28:46.849Z,97172.75
2023-04-19T07:31:16.981Z,97168.63
2023-04-19T07:33:44.000Z,97172.38
2023-04-19T07:36:10.523Z,97166.81
2023-04-19T07:38:39.714Z,97169.81
2023-04-19T07:41:06.273Z,97164.28
2023-04-19T07:43:32.778Z,97176.75
2023-04-19T07:45:59.283Z,97170.59
2023-04-19T07:48:25.683Z,97166.91
2023-04-19T07:50:52.254Z,97157.91
2023-04-19T07:53:18.806Z,97160.38
2023-04-19T07:55:45.181Z,97167.66
2023-04-19T07:58:11.831Z,97168.28
2023-04-19T08:00:38.275Z,97165.50
2023-04-19T08:03:04.811Z,97166.28
2023-04-19T08:05:31.914Z,97158.22
2023-04-19T08:07:58.607Z,97168.03
2023-04-19T08:10:25.884Z,97171.59
2023-04-19T08:13:05.065Z,97169.88
2023-04-19T08:18:05.092Z,97179.28
2023-04-19T08:20:32.511Z,97180.28
2023-04-19T08:23:02.569Z,97174.72
2023-04-19T08:25:33.903Z,97179.00
2023-04-19T08:28:00.359Z,97183.75
2023-04-19T08:30:26.802Z,97193.00
2023-04-19T08:32:55.425Z,97187.22
2023-04-19T08:35:23.372Z,97195.06
2023-04-19T08:37:49.897Z,97187.50
2023-04-19T08:40:17.044Z,97190.47
2023-04-19T08:42:43.683Z,97194.97
2023-04-19T08:45:26.929Z,97185.25
2023-04-19T08:48:00.704Z,97194.22
2023-04-19T08:50:33.303Z,97196.63
2023-04-19T08:55:32.309Z,97193.38
2023-04-19T08:57:58.827Z,97197.25
2023-04-19T09:00:25.442Z,97205.84
2023-04-19T09:02:53.454Z,97199.28
2023-04-19T09:05:20.932Z,97201.22
2023-04-19T09:07:48.437Z,97201.91
2023-04-19T09:10:16.797Z,97189.28
2023-04-19T09:12:43.848Z,97188.75
2023-04-19T09:15:11.508Z,97182.97
2023-04-19T09:17:39.306Z,97185.00
2023-04-19T09:20:06.772Z,97186.19
2023-04-19T09:22:33.568Z,97182.53
2023-04-19T09:27:34.248Z,97182.25
2023-04-19T09:30:02.256Z,97180.69
2023-04-19T09:32:29.190Z,97176.28
2023-04-19T09:34:56.716Z,97172.59
2023-04-19T09:39:54.068Z,97172.31
2023-04-19T09:42:42.126Z,97170.44
2023-04-19T09:47:37.977Z,97163.00
2023-04-19T09:50:21.916Z,97157.97
2023-04-19T09:52:51.916Z,97156.09
2023-04-19T09:57:48.716Z,97133.81
2023-04-19T10:00:15.660Z,97141.47
2023-04-19T10:02:42.291Z,97128.47
2023-04-19T10:05:20.431Z,97131.47
2023-04-19T10:07:57.428Z,97126.09
2023-04-19T10:10:40.620Z,97125.59
2023-04-19T10:13:18.850Z,97111.78
2023-04-19T10:16:01.779Z,97104.31
2023-04-19T10:18:34.883Z,97106.78
2023-04-19T10:21:04.208Z,97092.69
2023-04-19T10:23:31.634Z,97108.59
2023-04-19T10:25:58.806Z,97097.41
2023-04-19T10:28:27.920Z,97100.44
2023-04-19T10:31:01.061Z,97101.22
2023-04-19T10:33:28.651Z,97092.94
2023-04-19T10:35:59.630Z,97083.81
2023-04-19T10:38:36.800Z,97080.72
2023-04-19T10:41:13.645Z,97078.00
2023-04-19T10:43:46.233Z,97074.72
2023-04-19T10:46:12.767Z,97082.59
2023-04-19T10:48:40.770Z,97069.66
2023-04-19T10:51:19.083Z,97073.81
2023-04-19T10:53:46.645Z,97068.22
2023-04-19T10:56:13.323Z,97068.94
2023-04-19T10:58:58.399Z,97067.91
2023-04-19T11:01:39.654Z,97056.97
2023-04-19T11:04:16.863Z,97058.75
2023-04-19T11:06:55.410Z,97064.72
2023-04-19T11:09:34.353Z,97054.75
2023-04-19T11:12:05.450Z,97053.22
2023-04-19T11:14:33.148Z,97054.53
2023-04-19T11:17:00.169Z,97051.97
2023-04-19T11:19:27.786Z,97052.78
2023-04-19T11:21:57.673Z,97037.66
2023-04-19T11:24:26.125Z,97028.34
2023-04-19T11:26:55.312Z,97037.50
2023-04-19T11:29:32.009Z,97024.13
2023-04-19T11:32:00.111Z,97022.88
2023-04-19T11:34:37.119Z,97027.31
2023-04-19T11:37:03.549Z,97009.88
2023-04-19T11:39:32.072Z,97007.50
2023-04-19T11:41:59.530Z,97018.44
2023-04-19T11:44:25.974Z,97006.78
2023-04-19T11:47:02.812Z,96999.56
2023-04-19T11:49:35.596Z,97009.06
2023-04-19T11:52:06.227Z,97000.44
2023-04-19T11:54:33.212Z,96994.44
2023-04-19T11:57:03.539Z,96996.91
2023-04-19T11:59:30.562Z,96995.50
2023-04-19T12:02:10.508Z,96995.63
2023-04-19T12:04:37.263Z,96987.25
2023-04-19T12:07:04.855Z,96985.78
2023-04-19T12:09:33.818Z,96989.34
2023-04-19T12:12:00.554Z,96990.06
2023-04-19T12:14:27.138Z,96982.19
2023-04-19T12:17:22.801Z,96978.25
2023-04-19T12:19:49.331Z,96978.19
2023-04-19T12:22:19.591Z,96972.53
2023-04-19T12:24:46.411Z,96963.38
2023-04-19T12:27:17.510Z,96979.09
2023-04-19T12:29:44.004Z,96980.72
2023-04-19T12:32:11.346Z,96975.25
2023-04-19T12:34:37.835Z,96973.94
2023-04-19T12:37:04.501Z,96970.69
2023-04-19T12:39:30.985Z,96971.19
2023-04-19T12:41:57.587Z,96978.25
2023-04-19T12:44:24.197Z,96983.38
2023-04-19T12:46:50.667Z,96987.44
2023-04-19T12:49:20.295Z,96976.06
2023-04-19T12:51:47.661Z,96970.69
2023-04-19T12:54:14.759Z,96973.75
2023-04-19T12:56:41.532Z,96969.69
2023-04-19T12:59:07.920Z,96971.34
2023-04-19T13:01:34.360Z,96976.13
2023-04-19T13:04:01.181Z,96977.19
2023-04-19T13:06:33.131Z,96978.69
2023-04-19T13:09:01.197Z,96977.81
2023-04-19T13:11:28.252Z,96973.88
2023-04-19T13:13:54.766Z,96976.44
2023-04-19T13:16:21.428Z,96973.59
2023-04-19T13:18:48.283Z,96962.34
2023-04-19T13:21:14.817Z,96977.00
2023-04-19T13:23:42.681Z,96982.28
2023-04-19T13:26:09.079Z,96966.50
2023-04-19T13:28:40.612Z,96964.06
2023-04-19T13:31:07.110Z,96965.25
2023-04-19T13:33:33.574Z,96960.41
2023-04-19T13:36:02.145Z,96961.88
2023-04-19T13:38:36.538Z,96961.28
2023-04-19T13:41:03.634Z,96951.19
2023-04-19T13:43:30.105Z,96954.78
2023-04-19T13:45:56.579Z,96945.50
2023-04-19T13:48:23.067Z,96939.78
2023-04-19T13:50:52.447Z,96941.22
2023-04-19T13:53:18.868Z,96935.97
2023-04-19T13:55:45.261Z,96943.88
2023-04-19T13:58:11.868Z,96945.09
2023-04-19T14:00:38.363Z,96946.28
2023-04-19T14:03:07.981Z,96944.09
2023-04-19T14:05:34.763Z,96945.78
2023-04-19T14:08:01.360Z,96948.66
2023-04-19T14:10:28.027Z,96945.78
2023-04-19T14:12:55.253Z,96930.56
2023-04-19T14:15:26.840Z,96932.69
2023-04-19T14:17:53.275Z,96942.22
2023-04-19T14:20:21.763Z,96933.28
2023-04-19T14:22:50.193Z,96942.78
2023-04-19T14:25:17.942Z,96937.88
2023-04-19T14:27:45.398Z,96934.41
2023-04-19T14:30:21.094Z,96929.94
2023-04-19T14:32:49.660Z,96924.66
2023-04-19T14:35:23.381Z,96930.38
2023-04-19T14:37:53.029Z,96934.28
2023-04-19T14:40:21.071Z,96940.78
2023-04-19T14:42:48.074Z,96924.84
2023-04-19T14:45:14.538Z,96935.28
2023-04-19T14:47:41.220Z,96937.03
2023-04-19T14:50:07.749Z,96929.75
2023-04-19T14:52:35.363Z,96938.94
2023-04-19T14:55:02.277Z,96933.31
2023-04-19T14:57:28.677Z,96940.19
2023-04-19T14:59:58.102Z,96940.63
2023-04-19T15:02:25.444Z,96930.66
2023-04-19T15:04:52.589Z,96934.03
2023-04-19T15:07:20.459Z,96926.75
2023-04-19T15:09:46.860Z,96923.28
2023-04-19T15:12:13.327Z,96919.28
2023-04-19T15:14:39.797Z,96921.31
2023-04-19T15:17:06.349Z,96928.19
2023-04-19T15:19:32.889Z,96924.00
2023-04-19T15:22:00.623Z,96929.91
2023-04-19T15:24:27.159Z,96936.63
2023-04-19T15:26:53.610Z,96930.69
2023-04-19T15:29:20.003Z,96933.38
2023-04-19T15:31:46.681Z,96929.75
2023-04-19T15:34:13.218Z,96922.41
2023-04-19T15:36:40.852Z,96927.94
2023-04-19T15:39:07.636Z,96919.66
2023-04-19T15:41:35.144Z,96925.50
2023-04-19T15:44:01.594Z,96925.47
2023-04-19T15:46:33.892Z,96925.47
2023-04-19T15:49:00.432Z,96927.84
2023-04-19T15:51:27.504Z,96930.69
2023-04-19T15:53:53.888Z,96939.16
2023-04-19T15:56:20.339Z,96927.47
2023-04-19T15:58:49.794Z,96937.19
2023-04-19T16:01:18.836Z,96937.75
2023-04-19T16:03:45.976Z,96932.97
2023-04-19T16:06:12.623Z,96932.63
2023-04-19T16:08:39.081Z,96933.81
2023-04-19T16:11:06.043Z,96928.69
2023-04-19T16:13:32.506Z,96928.22
2023-04-19T16:15:58.927Z,96928.59
2023-04-19T16:18:28.532Z,96933.22
2023-04-19T16:20:55.865Z,96927.47
2023-04-19T16:23:24.347Z,96935.34
2023-04-19T16:25:50.831Z,96942.94
2023-04-19T16:28:19.784Z,96934.88
2023-04-19T16:30:47.160Z,96940.44
2023-04-19T16:33:14.344Z,96931.13
2023-04-19T16:35:40.906Z,96940.16
2023-04-19T16:38:07.376Z,96939.16
2023-04-19T16:40:33.746Z,96937.56
2023-04-19T16:43:00.136Z,96941.19
2023-04-19T16:45:26.566Z,96933.75
2023-04-19T16:47:53.808Z,96934.22
2023-04-19T16:50:22.319Z,96938.56
2023-04-19T16:52:48.751Z,96940.91
2023-04-19T16:55:15.242Z,96945.84
2023-04-19T16:57:41.733Z,96945.22
2023-04-19T17:00:09.661Z,96943.44
2023-04-19T17:02:36.337Z,96945.13
2023-04-19T17:05:03.101Z,96944.81
2023-04-19T17:07:31.638Z,96939.38
2023-04-19T17:09:58.957Z,96940.22
2023-04-19T17:12:25.415Z,96936.25
2023-04-19T17:14:52.845Z,96937.91
2023-04-19T17:17:20.103Z,96934.81
2023-04-19T17:19:49.530Z,96947.28
2023-04-19T17:22:18.195Z,96946.47
2023-04-19T17:24:44.695Z,96942.22
2023-04-19T17:27:11.693Z,96940.72
2023-04-19T17:29:38.189Z,96945.31
2023-04-19T17:32:12.844Z,96950.56
2023-04-19T17:34:39.294Z,96954.66
2023-04-19T17:37:05.829Z,96955.31
2023-04-19T17:39:33.291Z,96947.78
2023-04-19T17:41:59.710Z,96952.97
2023-04-19T17:44:26.927Z,96957.53
2023-04-19T17:46:53.466Z,96970.63
2023-04-19T17:49:21.200Z,96974.66
2023-04-19T17:51:47.942Z,96979.91
2023-04-19T17:54:15.906Z,96982.78
2023-04-19T17:56:42.484Z,96988.94
2023-04-19T17:59:08.931Z,96995.84
2023-04-19T18:01:35.676Z,96995.78
2023-04-19T18:04:03.456Z,97001.72
2023-04-19T18:06:30.388Z,96995.78
2023-04-19T18:08:58.416Z,96991.41
2023-04-19T18:11:26.396Z,96996.94
2023-04-19T18:13:54.647Z,96998.91
2023-04-19T18:16:26.227Z,97000.88
2023-04-19T18:18:54.841Z,96992.81
2023-04-19T18:21:27.166Z,96999.16
2023-04-19T18:23:54.804Z,97002.69
2023-04-19T18:26:24.164Z,97002.03
2023-04-19T18:28:51.619Z,97002.78
2023-04-19T18:31:18.031Z,97002.22
2023-04-19T18:33:44.481Z,96998.25
2023-04-19T18:36:11.894Z,97003.34
2023-04-19T18:38:38.465Z,97000.81
2023-04-19T18:41:04.937Z,97004.09
2023-04-19T18:43:31.640Z,97002.38
2023-04-19T18:46:04.266Z,97009.38
2023-04-19T18:48:31.791Z,97008.47
2023-04-19T18:50:59.476Z,97005.47
2023-04-19T18:53:31.630Z,97010.59
2023-04-19T18:56:00.643Z,97017.69
2023-04-19T18:58:27.591Z,97017.06
2023-04-19T19:01:02.062Z,97019.66
2023-04-19T19:03:57.970Z,97025.13
2023-04-19T19:06:17.188Z,97016.25
2023-04-19T19:08:46.180Z,97028.97
2023-04-19T19:11:44.143Z,97020.19
2023-04-19T19:14:04.380Z,97018.69
2023-04-19T19:16:50.730Z,97025.00
2023-04-19T19:19:20.681Z,97023.38
2023-04-19T19:21:47.478Z,97015.94
2023-04-19T19:24:14.539Z,97023.78
2023-04-19T19:26:41.041Z,97019.13
2023-04-19T19:29:09.265Z,97025.47
2023-04-19T19:31:36.084Z,97024.09
2023-04-19T19:34:23.340Z,97031.13
2023-04-19T19:36:51.573Z,97025.22
2023-04-19T19:39:19.210Z,97034.84
2023-04-19T19:44:15.246Z,97033.47
2023-04-19T19:46:41.883Z,97028.28
2023-04-19T19:49:12.669Z,97025.53
2023-04-19T19:51:56.658Z,97029.53
2023-04-19T19:54:24.924Z,97024.16
2023-04-19T19:59:21.226Z,97023.88
2023-04-19T20:01:54.226Z,97022.50
2023-04-19T20:04:22.715Z,97026.19
2023-04-19T20:09:23.584Z,97032.66
2023-04-19T20:11:58.016Z,97027.03
2023-04-19T20:14:25.680Z,97033.72
2023-04-19T20:16:52.192Z,97032.22
2023-04-19T20:19:19.450Z,97031.00
2023-04-19T20:21:47.235Z,97030.03
2023-04-19T20:24:13.947Z,97035.63
2023-04-19T20:26:40.630Z,97035.50
2023-04-19T20:29:07.855Z,97023.28
2023-04-19T20:31:35.364Z,97029.44
2023-04-19T20:34:01.774Z,97025.28
2023-04-19T20:36:31.578Z,97023.09
2023-04-19T20:38:58.853Z,97021.31
2023-04-19T20:41:27.178Z,97014.13
2023-04-19T20:43:56.974Z,97010.38
2023-04-19T20:46:23.626Z,97013.50
2023-04-19T20:48:50.093Z,97013.78
2023-04-19T20:51:17.634Z,97012.84
2023-04-19T20:53:44.860Z,97012.28
2023-04-19T20:56:11.307Z,97015.81
2023-04-19T20:58:39.257Z,97012.03
2023-04-19T21:01:05.773Z,97010.50
2023-04-19T21:03:36.534Z,97019.38
2023-04-19T21:06:03.139Z,97018.94
2023-04-19T21:08:29.607Z,97018.91
2023-04-19T21:10:56.253Z,97019.63
2023-04-19T21:13:22.675Z,97012.19
2023-04-19T21:15:50.165Z,97008.34
2023-04-19T21:18:17.508Z,97009.06
2023-04-19T21:20:43.985Z,97002.63
2023-04-19T21:23:11.052Z,97005.50
2023-04-19T21:25:37.452Z,97005.97
2023-04-19T21:28:09.761Z,96998.31
2023-04-19T21:30:40.729Z,96989.94
2023-04-19T21:33:12.241Z,96990.28
2023-04-19T21:35:38.681Z,96983.06
2023-04-19T21:38:07.428Z,96981.19
2023-04-19T21:40:33.885Z,96982.91
2023-04-19T21:43:02.325Z,96981.91
2023-04-19T21:45:28.718Z,96979.03
2023-04-19T21:47:56.342Z,96971.06
2023-04-19T21:50:22.824Z,96972.53
2023-04-19T21:52:56.178Z,96968.53
2023-04-19T21:55:22.664Z,96966.84
2023-04-19T21:57:50.062Z,96966.25
2023-04-19T22:00:16.889Z,96966.47
2023-04-19T22:02:43.399Z,96961.72
2023-04-19T22:05:10.013Z,96958.34
2023-04-19T22:07:38.523Z,96956.69
2023-04-19T22:10:06.263Z,96960.59
2023-04-19T22:12:34.121Z,96958.31
2023-04-19T22:15:01.376Z,96959.09
2023-04-19T22:17:29.375Z,96959.03
2023-04-19T22:20:02.312Z,96947.84
2023-04-19T22:22:28.698Z,96945.41
2023-04-19T22:24:58.435Z,96937.91
2023-04-19T22:27:25.525Z,96934.22
2023-04-19T22:29:51.939Z,96940.97
2023-04-19T22:32:18.499Z,96943.25
2023-04-19T22:34:45.052Z,96943.72
2023-04-19T22:37:11.471Z,96937.00
2023-04-19T22:39:37.923Z,96932.41
2023-04-19T22:42:04.482Z,96931.03
2023-04-19T22:44:30.940Z,96932.75
2023-04-19T22:46:59.321Z,96930.84
2023-04-19T22:49:25.843Z,96928.25
2023-04-19T22:51:54.423Z,96920.81
2023-04-19T22:54:20.850Z,96931.34
2023-04-19T22:56:51.046Z,96925.72
2023-04-19T22:59:17.656Z,96919.50
2023-04-19T23:01:45.708Z,96918.94
2023-04-19T23:04:14.169Z,96914.63
2023-04-19T23:06:42.211Z,96915.63
2023-04-19T23:09:11.107Z,96915.00
2023-04-19T23:11:37.688Z,96918.03
2023-04-19T23:14:05.093Z,96920.63
2023-04-19T23:16:33.412Z,96920.94
2023-04-19T23:19:00.701Z,96907.28
2023-04-19T23:21:29.918Z,96907.47
2023-04-19T23:23:56.305Z,96905.53
2023-04-19T23:26:22.944Z,96901.53
2023-04-19T23:28:49.333Z,96902.78
2023-04-19T23:31:15.804Z,96905.25
2023-04-19T23:33:42.250Z,96899.47
2023-04-19T23:36:09.243Z,96903.03
2023-04-19T23:38:35.603Z,96907.06
2023-04-19T23:41:02.036Z,96896.91
2023-04-19T23:43:28.437Z,96899.41
2023-04-19T23:45:54.828Z,96891.50
2023-04-19T23:48:21.219Z,96884.00
2023-04-19T23:50:47.587Z,96879.16
2023-04-19T23:53:13.965Z,96880.72
2023-04-19T23:55:40.411Z,96881.41
2023-04-19T23:58:07.072Z,96881.38
